Latest Coastal Weather Observations for Nullarbor

IDS60701

Issued at 7:05 am CST Tuesday 2 September 2014 (issued every 10 minutes, with the page automatically refreshed every 10 minutes)

About coastal observations | Map of coastal stations | Coastal observations for SA | Marine services | Other Formats
Station Details ID: 018106 Name: NULLARBOR Lat: -31.45 Lon: 130.90 Height: 64.0 m
Data from the previous 72 hours. | See also: Recent months at Nullarbor
Date/Time
CST
Temp

°C
Wind Pressure Rain
since 9am
mm
Weather Cloud Vis
km
Sea
Height
m
Swell
Dir
 
Speed
knots
Gust
knots
hPa Trend Height
m
Period
s
Dir
02/07:00am 10.6 SSE 5 6 1028.8 - 0.2 - Cloudy 10 - - - -
02/06:30am 10.8 SSE 6 7 1028.5 - 0.2 - Cloudy 10 - - - -
02/06:00am 10.7 ESE 6 7 1028.2 - 0.2 - Cloudy 10 - - - -
02/05:30am 10.6 SE 3 5 1028.6 - 0.2 - Cloudy 10 - - - -
02/05:00am 10.7 S 4 5 1027.9 - 0.2 - Cloudy 10 - - - -
02/04:30am 10.7 SSE 5 6 1027.4 - 0.2 - Cloudy 10 - - - -
02/04:00am 10.5 SE 6 9 1027.5 - 0.2 - Partly cloudy 10 - - - -
02/03:30am 10.5 S 7 10 1027.5 - 0.2 - Cloudy 10 - - - -
02/03:00am 10.9 SSE 7 11 1027.3 - 0.2 - Mostly cloudy 10 - - - -
02/02:30am 11.3 SSE 7 9 1027.9 - 0.2 - Cloudy 10 - - - -
02/02:00am 11.0 SSW 5 10 1028.0 - 0.2 - Cloudy 10 - - - -
02/01:30am 11.1 SSW 6 9 1028.0 - 0.2 - Cloudy 10 - - - -
02/01:00am 10.9 SSW 6 7 1028.2 - 0.2 - Cloudy 10 - - - -
02/12:30am 10.4 S 5 8 1028.1 - 0.2 - Partly cloudy 10 - - - -
02/12:00am 9.6 SSE 6 7 1027.9 - 0.2 - Mostly cloudy 10 - - - -
 
Date/Time
CST
Temp

°C
Wind Pressure Rain
since 9am
mm
Weather Cloud Vis
km
Sea
Height
m
Swell
Dir
 
Speed
knots
Gust
knots
hPa Trend Height
m
Period
s
Dir
01/11:30pm 9.4 S 5 6 1028.2 - 0.2 - Partly cloudy 10 - - - -
01/11:00pm 9.2 S 7 8 1028.0 - 0.2 - Partly cloudy 10 - - - -
01/10:30pm 10.7 S 7 8 1027.9 - 0.2 - Partly cloudy 10 - - - -
01/10:00pm 12.1 S 9 12 1027.5 - 0.2 - Partly cloudy 10 - - - -
01/09:30pm 10.9 SSW 7 9 1027.5 - 0.2 - Partly cloudy 10 - - - -
01/09:00pm 11.4 SSW 9 11 1027.5 - 0.2 - Partly cloudy 10 - - - -
01/08:30pm 12.1 SSW 7 12 1027.1 - 0.2 - Partly cloudy 10 - - - -
01/08:00pm 11.5 SSW 6 7 1026.6 - 0.2 - Cloudy 10 - - - -
01/07:30pm 11.3 SSW 8 10 1026.4 - 0.2 - Partly cloudy 10 - - - -
01/07:00pm 11.4 SSW 10 13 1026.1 - 0.2 - Partly cloudy 10 - - - -
01/06:30pm 12.3 SSW 12 15 1025.6 - 0.2 - Partly cloudy 10 - - - -
01/06:00pm 12.9 SSW 12 15 1025.1 - 0.2 - Mostly clear 10 - - - -
01/05:30pm 13.9 SSW 15 19 1024.6 - 0.2 - Partly cloudy 10 - - - -
01/05:00pm 14.1 SSW 16 20 1024.3 - 0.2 - Partly cloudy 10 - - - -
01/04:30pm 14.5 SSW 15 21 1023.9 - 0.2 - Partly cloudy 10 - - - -
01/04:00pm 14.7 SSW 16 21 1023.6 - 0.2 - Partly cloudy 10 - - - -
01/03:30pm 14.5 SSW 18 23 1023.4 - 0.2 - Partly cloudy 10 - - - -
01/03:06pm 13.9 SSW 18 23 1023.2 - 0.2 - Partly cloudy 10 - - - -
01/03:00pm 13.9 SW 18 21 1023.1 - 0.2 Recent precip. Cloudy 10 - - - -
01/02:52pm 13.2 SW 18 25 1023.2 - 0.2 - Partly cloudy 7 - - - -
01/02:30pm 16.5 SSW 18 23 1022.9 - 0.0 - Partly cloudy 10 - - - -
01/02:00pm 16.6 SSW 18 22 1022.9 - 0.0 - Partly cloudy 10 - - - -
01/01:30pm 16.8 SW 18 26 1022.9 - 0.0 - Partly cloudy 10 - - - -
01/01:00pm 16.5 SW 19 25 1022.7 - 0.0 - Partly cloudy 10 - - - -
01/12:30pm 14.6 SSW 17 21 1022.7 - 0.0 - Partly cloudy 10 - - - -
01/12:00pm 16.1 SW 17 23 1022.3 - 0.0 - Partly cloudy 10 - - - -
01/11:30am 15.6 SW 17 22 1022.1 - 0.0 - Partly cloudy 10 - - - -
01/11:00am 15.6 SW 17 23 1021.8 - 0.0 - Partly cloudy 10 - - - -
01/10:30am 15.3 SW 15 22 1021.8 - 0.0 - Partly cloudy 10 - - - -
01/10:00am 14.8 SW 15 19 1021.5 - 0.0 - - 10 - - - -
01/09:30am 14.3 WSW 10 16 1021.3 - 0.0 - - 10 - - - -
01/09:00am 13.5 WSW 7 9 1021.0 - 6.6 - Mostly cloudy 10 - - - -
01/08:30am 12.8 W 5 7 1020.6 - 6.6 - - 10 - - - -
01/08:00am 12.6 WSW 5 6 1020.0 - 6.6 - - 10 - - - -
01/07:30am 12.6 WSW 5 7 1019.5 - 6.6 - - 10 - - - -
01/07:00am 12.7 W 6 8 1019.3 - 6.6 - Partly cloudy 10 - - - -
01/06:30am 12.8 W 7 8 1018.8 - 6.6 - Partly cloudy 10 - - - -
01/06:00am 12.8 W 5 7 1018.5 - 6.6 Recent precip. Mostly cloudy 10 - - - -
01/05:34am 12.8 W 5 7 1018.1 - 6.6 - Partly cloudy 10 - - - -
01/05:30am 12.9 W 6 8 1018.1 - 6.6 - Partly cloudy 10 - - - -
01/05:12am 13.1 WSW 9 12 1018.2 - 6.0 - Partly cloudy 7 - - - -
01/05:00am 13.3 WSW 9 11 1018.0 - 5.6 - Partly cloudy 10 - - - -
01/04:30am 13.5 WSW 5 7 1017.5 - 5.6 - Partly cloudy 10 - - - -
01/04:05am 13.5 WSW 6 8 1017.4 - 5.6 - Partly cloudy 10 - - - -
01/04:00am 13.5 WSW 5 7 1017.4 - 5.6 - Partly cloudy 10 - - - -
01/03:50am 13.4 WSW 5 7 1017.2 - 5.6 - Partly cloudy 7 - - - -
01/03:30am 13.4 SW 4 5 1016.8 - 5.4 - Partly cloudy 10 - - - -
01/03:00am 13.5 SSW 5 7 1016.5 - 5.4 Recent precip. Mostly cloudy 10 - - - -
01/02:59am 13.5 SSW 5 7 1016.5 - 5.4 - Partly cloudy 10 - - - -
01/02:39am 13.7 SSW 7 8 1016.7 - 5.0 - Partly cloudy 7 - - - -
01/02:30am 13.9 SW 9 12 1016.6 - 4.6 - Cloudy 10 - - - -
01/02:00am 13.9 WSW 7 10 1016.3 - 4.4 - Partly cloudy 10 - - - -
01/01:30am 14.0 WSW 6 8 1016.2 - 4.4 - Partly cloudy 10 - - - -
01/01:00am 14.0 W 6 8 1016.2 - 4.4 - Partly cloudy 9 - - - -
01/12:58am 14.0 W 6 8 1016.1 - 4.4 - Partly cloudy 8 - - - -
01/12:45am 14.0 W 5 7 1016.2 - 4.4 - Partly cloudy 7 - - - -
01/12:30am 14.0 W 5 6 1016.3 - 4.4 - Partly cloudy 10 - - - -
01/12:00am 14.0 W 5 7 1016.2 - 4.4 - Cloudy 9 - - - -
 
Date/Time
CST
Temp

°C
Wind Pressure Rain
since 9am
mm
Weather Cloud Vis
km
Sea
Height
m
Swell
Dir
 
Speed
knots
Gust
knots
hPa Trend Height
m
Period
s
Dir
31/11:30pm 14.0 SW 6 7 1015.8 - 4.4 - Partly cloudy 9 - - - -
31/11:00pm 14.2 S 5 6 1015.6 - 4.4 - Partly cloudy 9 - - - -
31/10:30pm 14.3 SW 3 4 1015.9 - 4.2 - Partly cloudy 10 - - - -
31/10:00pm 14.3 S 5 6 1015.5 - 4.2 - Partly cloudy 10 - - - -
31/09:30pm 14.3 S 5 7 1015.6 - 4.2 - Partly cloudy 10 - - - -
31/09:00pm 14.4 S 6 7 1015.6 - 4.2 - Mostly cloudy 10 - - - -
31/08:30pm 14.3 S 5 7 1015.3 - 4.2 - Partly cloudy 10 - - - -
31/08:00pm 14.3 SSE 6 8 1014.7 - 4.2 - Partly cloudy 10 - - - -
31/07:30pm 14.4 S 7 9 1014.3 - 4.2 - - 10 - - - -
31/07:04pm 14.6 SSE 10 13 1014.1 - 4.2 - Partly cloudy 10 - - - -
31/07:00pm 14.6 SSE 10 13 1014.0 - 4.2 - Partly cloudy 10 - - - -
31/06:30pm 15.1 S 11 16 1013.7 - 4.2 - Partly cloudy 10 - - - -
31/06:27pm 15.2 S 11 16 1013.7 - 4.2 - Partly cloudy 10 - - - -
31/06:14pm 15.4 SSE 12 15 1013.7 - 4.2 - Partly cloudy 10 - - - -
31/06:10pm 15.5 SSE 12 16 1013.6 - 4.2 - Partly cloudy 10 - - - -
31/06:00pm 15.6 S 14 19 1013.6 - 4.2 Rain Cloudy 4 - - - -
31/05:53pm 15.8 S 14 18 1014.1 - 3.4 - Partly cloudy 1 - - - -
31/05:51pm 15.8 SW 21 32 1015.4 - 3.4 - Partly cloudy 1 - - - -
31/05:44pm 16.9 SSW 21 32 1015.3 - 0.0 - Partly cloudy 4 - - - -
31/05:43pm 17.0 SSW 20 29 1015.3 - 0.0 - Partly cloudy 7 - - - -
31/05:40pm 17.0 SSW 17 22 1014.3 - 0.0 - Partly cloudy 10 - - - -
31/05:30pm 17.3 SE 13 16 1012.1 - 0.0 - Partly cloudy 10 - - - -
31/05:00pm 18.4 SE 13 17 1011.8 - 0.0 - Partly cloudy 10 - - - -
31/04:30pm 18.7 SSE 17 21 1012.2 - 0.0 - Partly cloudy 10 - - - -
31/04:00pm 20.1 SSE 16 20 1012.4 - 0.0 - - 10 - - - -
31/03:30pm 20.1 SSE 15 19 1012.2 - 0.0 - - 10 - - - -
31/03:00pm 21.5 S 13 18 1012.1 - 0.0 - - 10 - - - -
31/02:30pm 23.7 S 15 20 1012.2 - 0.0 - Partly cloudy 10 - - - -
31/02:03pm 24.8 S 17 21 1012.1 - 0.0 - Partly cloudy 10 - - - -
31/02:00pm 25.9 SW 6 11 1012.3 - 0.0 - Partly cloudy 10 - - - -
31/01:30pm 25.4 WNW 6 10 1012.4 - 0.0 - - 10 - - - -
31/01:00pm 25.4 NNW 4 7 1012.7 - 0.0 - - 10 - - - -
31/12:30pm 24.0 SSW 3 8 1013.2 - 0.0 - - 10 - - - -
31/12:00pm 23.7 SSE 3 7 1013.7 - 0.0 - Mostly clear 10 - - - -
31/11:30am 22.6 SE 6 10 1014.0 - 0.0 - - 10 - - - -
31/11:00am 21.6 ESE 7 10 1014.2 - 0.0 - - 10 - - - -
31/10:30am 20.4 ESE 7 9 1014.4 - 0.0 - - 10 - - - -
31/10:00am 19.7 SE 7 11 1014.8 - 0.0 - - 10 - - - -
31/09:30am 18.5 SSE 10 11 1014.9 - 0.0 - - 10 - - - -
31/09:00am 17.4 SSE 10 12 1014.9 - 0.0 - - 10 - - - -
31/08:30am 16.4 SSE 7 9 1014.5 - 0.0 - - 10 - - - -
31/08:00am 15.1 SE 8 10 1014.2 - 0.0 - - 10 - - - -
31/07:30am 15.0 SE 16 24 1013.7 - 0.0 - - 10 - - - -
31/07:26am 14.4 SE 15 22 1013.8 - 0.0 - - 10 - - - -
31/07:13am 12.7 E 7 9 1013.5 - 0.0 - - 9 - - - -
31/07:00am 12.3 SE 9 9 1013.5 - 0.0 - - 7 - - - -
31/06:41am 11.8 S 7 8 1014.2 - 0.0 - - 7 - - - -
31/06:30am 12.1 S 7 8 1014.4 - 0.0 - - 8 - - - -
31/06:00am 12.4 S 6 8 1014.1 - 0.0 - Cloudy 8 - - - -
31/05:34am 12.7 S 9 10 1014.3 - 0.0 - - 9 - - - -
31/05:30am 12.6 S 9 10 1014.3 - 0.0 - - 8 - - - -
31/05:03am 11.9 SSE 6 7 1013.8 - 0.0 - - 7 - - - -
31/05:00am 11.9 S 6 7 1013.9 - 0.0 - - 8 - - - -
31/04:30am 12.2 S 7 9 1014.1 - 0.0 - - 8 - - - -
31/04:00am 12.2 S 8 9 1014.2 - 0.0 - - 9 - - - -
31/03:30am 12.2 S 8 9 1013.9 - 0.0 - - 9 - - - -
31/03:00am 11.1 S 9 9 1014.1 - 0.0 - Cloudy 9 - - - -
31/02:30am 11.4 S 8 9 1014.3 - 0.0 - - 10 - - - -
31/02:00am 12.0 SSE 9 9 1014.3 - 0.0 - - 10 - - - -
31/01:30am 12.9 SSE 8 10 1014.9 - 0.0 - - 10 - - - -
31/01:00am 13.6 SSE 9 11 1015.0 - 0.0 - - 10 - - - -
31/12:30am 13.1 S 11 15 1015.2 - 0.0 - - 10 - - - -
31/12:00am 10.4 SSW 9 10 1015.5 - 0.0 - Partly cloudy 10 - - - -
 
Date/Time
CST
Temp

°C
Wind Pressure Rain
since 9am
mm
Weather Cloud Vis
km
Sea
Height
m
Swell
Dir
 
Speed
knots
Gust
knots
hPa Trend Height
m
Period
s
Dir
30/11:30pm 11.5 SW 8 9 1015.7 - 0.0 - - 10 - - - -
30/11:00pm 12.3 SSW 6 8 1015.1 - 0.0 - - 10 - - - -
30/10:30pm 12.2 SW 8 10 1014.7 - 0.0 - - 10 - - - -
30/10:00pm 13.2 SW 9 11 1014.9 - 0.0 - - 10 - - - -
30/09:30pm 15.0 SW 10 11 1014.8 - 0.0 - - 10 - - - -
30/09:00pm 15.6 S 3 5 1014.4 - 0.0 - - 10 - - - -
30/08:30pm 16.7 S 3 5 1014.5 - 0.0 - - 10 - - - -
30/08:00pm 18.7 S 5 6 1014.2 - 0.0 - - 10 - - - -
30/07:30pm 19.0 SSE 4 5 1013.9 - 0.0 - - 10 - - - -
30/07:00pm 20.0 S 5 6 1013.7 - 0.0 - - 10 - - - -
30/06:30pm 22.2 SSW 8 11 1013.4 - 0.0 - - 10 - - - -
30/06:00pm 24.6 SW 9 12 1013.1 - 0.0 - Mostly clear 10 - - - -
30/05:30pm 28.4 WSW 13 17 1012.9 - 0.0 - - 10 - - - -
30/05:00pm 31.8 NNW 15 21 1012.5 - 0.0 - - 10 - - - -
30/04:30pm 31.1 NNW 15 20 1012.6 - 0.0 - - 10 - - - -
30/04:00pm 32.0 NNW 15 22 1012.8 - 0.0 - - 10 - - - -
30/03:30pm 31.7 NNW 15 22 1013.0 - 0.0 - - 10 - - - -
30/03:00pm 31.9 NNW 17 23 1013.3 - 0.0 - - 10 - - - -
30/02:30pm 31.5 N 16 25 1013.8 - 0.0 - - 10 - - - -
30/02:06pm 31.4 NNW 15 25 1014.3 - 0.0 - - 10 - - - -
30/02:00pm 31.0 NNW 15 23 1014.4 - 0.0 - - 10 - - - -
30/01:41pm 31.4 NNW 15 29 1014.7 - 0.0 - - 10 - - - -
30/01:30pm 31.2 NNW 17 25 1015.1 - 0.0 - - 10 - - - -
30/01:00pm 30.1 N 18 24 1015.5 - 0.0 - - 10 - - - -
30/12:30pm 28.1 NNW 18 23 1016.2 - 0.0 - - 10 - - - -
30/12:00pm 28.5 N 17 21 1016.7 - 0.0 - - 10 - - - -
30/11:30am 26.1 N 18 24 1017.2 - 0.0 - - 10 - - - -
30/11:00am 25.3 N 18 23 1017.8 - 0.0 - - 10 - - - -
30/10:30am 23.2 N 19 23 1017.8 - 0.0 - - 10 - - - -
30/10:00am 21.7 N 18 23 1018.1 - 0.0 - - 10 - - - -
30/09:30am 19.2 N 16 22 1018.4 - 0.0 - - 10 - - - -
30/09:00am 17.3 N 16 21 1018.7 - 0.0 - - 10 - - - -
30/08:30am 15.7 N 15 19 1018.6 - 0.0 - - 10 - - - -
30/08:00am 14.4 NNE 14 18 1018.4 - 0.0 - - 10 - - - -
30/07:30am 13.7 NNE 14 17 1018.3 - 0.0 - - 10 - - - -

Other Formats:

Comma delimited format used in spreadsheet applications
http://www.bom.gov.au/fwo/IDS60701/IDS60701.94651.axf

JavaScript Object Notation format (JSON) in row-major order
http://www.bom.gov.au/fwo/IDS60701/IDS60701.94651.json